createdAt,value
2018-05-27T00:01:47.787Z,55.00
2018-05-27T00:04:16.088Z,54.60
2018-05-27T00:06:43.641Z,54.50
2018-05-27T00:09:11.931Z,54.70
2018-05-27T00:11:40.268Z,54.70
2018-05-27T00:14:07.755Z,54.70
2018-05-27T00:16:35.336Z,54.70
2018-05-27T00:19:02.831Z,54.80
2018-05-27T00:21:31.122Z,54.80
2018-05-27T00:23:59.586Z,54.80
2018-05-27T00:26:27.145Z,54.70
2018-05-27T00:28:54.637Z,55.20
2018-05-27T00:31:22.214Z,55.20
2018-05-27T00:33:49.921Z,55.40
2018-05-27T00:36:17.446Z,55.60
2018-05-27T00:38:45.042Z,55.60
2018-05-27T00:41:13.412Z,55.80
2018-05-27T00:43:40.924Z,55.80
2018-05-27T00:46:08.565Z,55.90
2018-05-27T00:48:36.058Z,55.70
2018-05-27T00:51:04.335Z,55.50
2018-05-27T00:53:44.712Z,55.50
2018-05-27T00:56:13.063Z,55.70
2018-05-27T00:58:40.592Z,55.70
2018-05-27T01:01:08.108Z,55.80
2018-05-27T01:03:35.709Z,55.90
2018-05-27T01:06:03.968Z,56.10
2018-05-27T01:08:31.585Z,56.00
2018-05-27T01:10:59.852Z,56.00
2018-05-27T01:13:28.129Z,55.90
2018-05-27T01:15:55.608Z,55.90
2018-05-27T01:18:23.299Z,56.10
2018-05-27T01:20:51.660Z,56.30
2018-05-27T01:23:19.211Z,56.30
2018-05-27T01:25:46.712Z,56.40
2018-05-27T01:28:14.219Z,56.50
2018-05-27T01:30:42.678Z,56.70
2018-05-27T01:33:10.933Z,56.40
2018-05-27T01:35:38.432Z,56.70
2018-05-27T01:38:06.008Z,56.90
2018-05-27T01:40:33.599Z,57.00
2018-05-27T01:43:01.982Z,57.10
2018-05-27T01:45:30.364Z,57.30
2018-05-27T01:47:58.646Z,57.40
2018-05-27T01:50:27.005Z,57.30
2018-05-27T01:52:54.552Z,57.20
2018-05-27T01:55:22.190Z,57.10
2018-05-27T01:57:50.468Z,57.20
2018-05-27T02:00:18.010Z,57.20
2018-05-27T02:02:45.491Z,57.40
2018-05-27T02:05:13.154Z,57.50
2018-05-27T02:07:40.665Z,57.60
2018-05-27T02:10:08.948Z,57.90
2018-05-27T02:12:36.461Z,57.90
2018-05-27T02:15:04.118Z,58.10
2018-05-27T02:17:31.720Z,58.30
2018-05-27T02:19:59.308Z,58.40
2018-05-27T02:22:26.865Z,58.60
2018-05-27T02:24:54.384Z,58.80
2018-05-27T02:27:22.761Z,59.00
2018-05-27T02:29:50.293Z,59.50
2018-05-27T02:32:17.803Z,59.10
2018-05-27T02:34:46.098Z,59.50
2018-05-27T02:37:13.615Z,59.20
2018-05-27T02:39:41.102Z,59.20
2018-05-27T02:42:08.718Z,59.20
2018-05-27T02:44:37.008Z,59.70
2018-05-27T02:47:05.496Z,59.70
2018-05-27T02:49:33.795Z,60.00
2018-05-27T02:52:01.568Z,59.80
2018-05-27T02:54:30.160Z,60.10
2018-05-27T02:56:58.412Z,60.10
2018-05-27T02:59:26.022Z,60.00
2018-05-27T03:01:54.311Z,60.20
2018-05-27T03:04:22.586Z,60.40
2018-05-27T03:06:51.076Z,60.50
2018-05-27T03:09:18.619Z,60.50
2018-05-27T03:11:46.148Z,60.60
2018-05-27T03:14:13.657Z,60.40
2018-05-27T03:16:41.168Z,60.60
2018-05-27T03:19:09.460Z,60.80
2018-05-27T03:21:38.704Z,60.70
2018-05-27T03:24:06.246Z,60.70
2018-05-27T03:26:34.543Z,60.30
2018-05-27T03:29:02.075Z,60.30
2018-05-27T03:31:29.570Z,60.30
2018-05-27T03:33:57.157Z,60.20
2018-05-27T03:36:25.418Z,61.20
2018-05-27T03:38:52.988Z,61.20
2018-05-27T03:41:20.492Z,61.40
2018-05-27T03:43:48.006Z,61.70
2018-05-27T03:46:15.580Z,61.90
2018-05-27T03:48:43.094Z,61.80
2018-05-27T03:51:11.357Z,62.20
2018-05-27T03:53:38.834Z,62.20
2018-05-27T03:56:07.227Z,62.40
2018-05-27T03:58:35.629Z,62.40
2018-05-27T04:01:03.161Z,62.40
2018-05-27T04:03:30.663Z,62.50
2018-05-27T04:06:11.035Z,62.30
2018-05-27T04:08:39.285Z,62.20
2018-05-27T04:11:06.913Z,62.10
2018-05-27T04:13:34.419Z,62.00
2018-05-27T04:16:01.911Z,62.10
2018-05-27T04:18:29.735Z,62.00
2018-05-27T04:20:57.280Z,61.90
2018-05-27T04:23:24.791Z,61.90
2018-05-27T04:25:52.413Z,61.80
2018-05-27T04:28:20.047Z,61.80
2018-05-27T04:30:47.595Z,61.80
2018-05-27T04:33:15.368Z,61.80
2018-05-27T04:35:42.892Z,62.50
2018-05-27T04:38:10.378Z,61.70
2018-05-27T04:40:37.995Z,61.60
2018-05-27T04:43:05.661Z,61.60
2018-05-27T04:45:33.268Z,61.50
2018-05-27T04:48:00.915Z,61.40
2018-05-27T04:50:28.415Z,61.10
2018-05-27T04:52:56.055Z,61.30
2018-05-27T04:55:23.572Z,61.20
2018-05-27T04:57:51.175Z,61.10
2018-05-27T05:00:19.467Z,61.30
2018-05-27T05:02:47.740Z,61.20
2018-05-27T05:05:15.433Z,61.10
2018-05-27T05:07:43.693Z,61.10
2018-05-27T05:10:11.279Z,61.10
2018-05-27T05:12:39.567Z,61.00
2018-05-27T05:15:07.859Z,60.90
2018-05-27T05:17:36.301Z,60.70
2018-05-27T05:20:03.980Z,60.70
2018-05-27T05:22:31.504Z,60.60
2018-05-27T05:24:59.788Z,60.50
2018-05-27T05:27:28.081Z,60.50
2018-05-27T05:29:56.355Z,60.00
2018-05-27T05:32:24.642Z,59.70
2018-05-27T05:34:52.308Z,59.70
2018-05-27T05:37:19.881Z,59.30
2018-05-27T05:39:47.389Z,59.10
2018-05-27T05:42:14.950Z,59.00
2018-05-27T05:44:43.341Z,58.90
2018-05-27T05:47:11.650Z,59.00
2018-05-27T05:49:39.367Z,58.90
2018-05-27T05:52:06.991Z,58.60
2018-05-27T05:54:34.765Z,58.60
2018-05-27T05:57:02.325Z,58.40
2018-05-27T05:59:30.614Z,58.30
2018-05-27T06:01:58.875Z,58.00
2018-05-27T06:04:26.455Z,58.00
2018-05-27T06:06:54.712Z,58.70
2018-05-27T06:09:22.283Z,58.10
2018-05-27T06:11:49.771Z,58.20
2018-05-27T06:14:17.311Z,58.30
2018-05-27T06:16:44.831Z,58.50
2018-05-27T06:19:13.210Z,58.80
2018-05-27T06:21:40.802Z,58.70
2018-05-27T06:24:09.055Z,58.80
2018-05-27T06:26:36.676Z,58.80
2018-05-27T06:29:04.199Z,58.70
2018-05-27T06:31:31.725Z,58.50
2018-05-27T06:33:59.284Z,58.30
2018-05-27T06:36:28.176Z,58.40
2018-05-27T06:38:56.457Z,58.20
2018-05-27T06:41:24.779Z,58.30
2018-05-27T06:43:52.338Z,58.30
2018-05-27T06:46:19.880Z,58.00
2018-05-27T06:48:47.412Z,58.20
2018-05-27T06:51:14.944Z,58.10
2018-05-27T06:53:42.438Z,57.80
2018-05-27T06:56:10.146Z,57.70
2018-05-27T06:58:37.710Z,57.70
2018-05-27T07:01:05.442Z,57.50
2018-05-27T07:03:33.928Z,57.80
2018-05-27T07:06:01.713Z,57.80
2018-05-27T07:08:29.230Z,57.90
2018-05-27T07:10:56.850Z,57.80
2018-05-27T07:13:24.510Z,57.70
2018-05-27T07:15:52.268Z,57.50
2018-05-27T07:18:19.871Z,57.50
2018-05-27T07:20:48.149Z,57.00
2018-05-27T07:23:16.476Z,56.80
2018-05-27T07:25:44.189Z,56.70
2018-05-27T07:28:11.833Z,56.50
2018-05-27T07:30:39.369Z,56.30
2018-05-27T07:33:07.715Z,53.60
2018-05-27T07:35:35.345Z,53.60
2018-05-27T07:38:02.934Z,52.80
2018-05-27T07:40:30.592Z,52.30
2018-05-27T07:42:58.176Z,51.90
2018-05-27T07:45:25.732Z,52.60
2018-05-27T07:47:53.340Z,51.90
2018-05-27T07:50:20.874Z,51.60
2018-05-27T07:52:48.396Z,51.10
2018-05-27T07:55:15.893Z,51.20
2018-05-27T07:57:44.207Z,50.80
2018-05-27T08:00:11.790Z,50.70
2018-05-27T08:02:39.316Z,51.00
2018-05-27T08:05:07.589Z,50.60
2018-05-27T08:07:35.205Z,50.60
2018-05-27T08:10:02.714Z,50.80
2018-05-27T08:12:30.353Z,50.70
2018-05-27T08:14:58.115Z,50.80
2018-05-27T08:17:26.403Z,50.40
2018-05-27T08:19:54.761Z,49.70
2018-05-27T08:22:22.333Z,49.70
2018-05-27T08:24:49.876Z,49.80
2018-05-27T08:27:17.452Z,49.60
2018-05-27T08:29:44.987Z,49.30
2018-05-27T08:32:13.300Z,49.50
2018-05-27T08:34:40.811Z,49.60
2018-05-27T08:37:08.365Z,49.30
2018-05-27T08:39:35.924Z,49.00
2018-05-27T08:42:03.439Z,48.80
2018-05-27T08:44:31.761Z,48.60
2018-05-27T08:46:59.283Z,48.10
2018-05-27T08:49:26.769Z,48.40
2018-05-27T08:51:55.160Z,48.80
2018-05-27T08:54:22.664Z,48.40
2018-05-27T08:56:50.182Z,48.70
2018-05-27T08:59:17.784Z,48.30
2018-05-27T09:01:46.285Z,47.90
2018-05-27T09:04:14.677Z,47.10
2018-05-27T09:06:42.343Z,47.00
2018-05-27T09:09:10.638Z,45.00
2018-05-27T09:11:38.888Z,43.70
2018-05-27T09:14:06.379Z,43.60
2018-05-27T09:16:33.981Z,43.40
2018-05-27T09:19:01.503Z,43.90
2018-05-27T09:21:29.039Z,44.50
2018-05-27T09:23:56.553Z,44.80
2018-05-27T09:26:24.805Z,44.20
2018-05-27T09:28:54.796Z,44.20
2018-05-27T09:31:22.528Z,42.40
2018-05-27T09:33:50.120Z,43.70
2018-05-27T09:36:17.641Z,43.10
2018-05-27T09:38:45.161Z,42.90
2018-05-27T09:41:12.728Z,42.60
2018-05-27T09:43:40.271Z,42.20
2018-05-27T09:46:07.793Z,41.40
2018-05-27T09:48:36.065Z,40.60
2018-05-27T09:51:04.406Z,40.30
2018-05-27T09:53:33.849Z,40.10
2018-05-27T09:56:02.335Z,39.70
2018-05-27T09:58:29.848Z,39.70
2018-05-27T10:00:58.158Z,39.30
2018-05-27T10:03:25.788Z,39.20
2018-05-27T10:05:53.300Z,38.10
2018-05-27T10:08:20.804Z,37.30
2018-05-27T10:10:48.569Z,36.40
2018-05-27T10:13:16.183Z,35.60
2018-05-27T10:15:43.664Z,35.40
2018-05-27T10:18:11.236Z,34.80
2018-05-27T10:20:38.811Z,34.30
2018-05-27T10:23:06.357Z,32.90
2018-05-27T10:25:33.864Z,32.70
2018-05-27T10:28:02.244Z,32.00
2018-05-27T10:30:30.585Z,31.70
2018-05-27T10:32:58.228Z,31.60
2018-05-27T10:35:25.742Z,31.70
2018-05-27T10:37:53.276Z,31.60
2018-05-27T10:40:20.818Z,31.30
2018-05-27T10:42:49.094Z,31.70
2018-05-27T10:45:16.598Z,31.60
2018-05-27T10:47:44.125Z,30.90
2018-05-27T10:50:13.136Z,30.00
2018-05-27T10:52:40.655Z,29.90
2018-05-27T10:55:08.170Z,30.00
2018-05-27T10:57:35.699Z,29.90
2018-05-27T11:00:03.191Z,30.00
2018-05-27T11:02:30.691Z,29.50
2018-05-27T11:04:59.363Z,29.10
2018-05-27T11:07:26.867Z,29.30
2018-05-27T11:09:54.456Z,29.00
2018-05-27T11:12:22.995Z,28.10
2018-05-27T11:14:50.533Z,28.00
2018-05-27T11:17:18.065Z,28.60
2018-05-27T11:19:45.881Z,28.60
2018-05-27T11:22:13.437Z,28.20
2018-05-27T11:24:41.695Z,27.50
2018-05-27T11:27:09.226Z,27.40
2018-05-27T11:29:36.790Z,27.20
2018-05-27T11:32:04.371Z,26.20
2018-05-27T11:34:32.013Z,26.80
2018-05-27T11:37:00.356Z,26.70
2018-05-27T11:39:28.576Z,27.00
2018-05-27T11:41:56.127Z,27.00
2018-05-27T11:44:23.621Z,26.30
2018-05-27T11:46:51.937Z,27.10
2018-05-27T11:49:19.545Z,27.10
2018-05-27T11:51:47.051Z,27.10
2018-05-27T11:54:14.602Z,27.20
2018-05-27T11:56:42.126Z,27.00
2018-05-27T11:59:09.644Z,27.20
2018-05-27T12:01:37.195Z,27.50
2018-05-27T12:04:04.721Z,27.80
2018-05-27T12:06:33.013Z,28.00
2018-05-27T12:09:00.662Z,28.00
2018-05-27T12:11:28.262Z,28.30
2018-05-27T12:13:55.845Z,27.90
2018-05-27T12:16:23.429Z,28.20
2018-05-27T12:18:50.963Z,28.40
2018-05-27T12:21:19.300Z,28.40
2018-05-27T12:23:46.854Z,28.40
2018-05-27T12:26:14.472Z,29.10
2018-05-27T12:28:42.019Z,29.90
2018-05-27T12:31:09.565Z,29.50
2018-05-27T12:33:37.100Z,29.40
2018-05-27T12:36:05.440Z,29.30
2018-05-27T12:38:33.040Z,29.60
2018-05-27T12:41:00.701Z,28.00
2018-05-27T12:43:28.233Z,28.10
2018-05-27T12:45:55.925Z,28.90
2018-05-27T12:48:24.235Z,29.90
2018-05-27T12:50:51.751Z,31.90
2018-05-27T12:53:20.120Z,33.70
2018-05-27T12:55:47.683Z,33.70
2018-05-27T12:58:15.192Z,34.90
2018-05-27T13:00:42.801Z,34.70
2018-05-27T13:03:10.697Z,35.30
2018-05-27T13:05:38.351Z,36.30
2018-05-27T13:08:06.025Z,38.00
2018-05-27T13:10:33.599Z,38.00
2018-05-27T13:13:01.232Z,39.00
2018-05-27T13:15:30.157Z,36.10
2018-05-27T13:17:57.705Z,36.20
2018-05-27T13:20:25.976Z,34.10
2018-05-27T13:22:53.589Z,34.10
2018-05-27T13:25:21.079Z,35.80
2018-05-27T13:27:48.607Z,36.30
2018-05-27T13:30:16.868Z,36.90
2018-05-27T13:32:44.677Z,36.80
2018-05-27T13:35:12.938Z,37.40
2018-05-27T13:37:40.486Z,37.40
2018-05-27T13:40:07.986Z,37.90
2018-05-27T13:42:35.505Z,36.90
2018-05-27T13:45:03.086Z,36.90
2018-05-27T13:47:30.591Z,36.70
2018-05-27T13:49:58.114Z,36.80
2018-05-27T13:52:25.657Z,36.60
2018-05-27T13:54:54.058Z,36.20
2018-05-27T13:57:21.568Z,36.20
2018-05-27T13:59:49.109Z,36.20
2018-05-27T14:02:16.620Z,36.10
2018-05-27T14:04:44.686Z,35.60
2018-05-27T14:07:12.175Z,34.80
2018-05-27T14:09:39.705Z,35.00
2018-05-27T14:12:07.372Z,35.60
2018-05-27T14:14:34.919Z,36.50
2018-05-27T14:17:03.206Z,36.10
2018-05-27T14:19:31.465Z,36.10
2018-05-27T14:21:59.000Z,36.10
2018-05-27T14:24:26.479Z,36.50
2018-05-27T14:26:54.000Z,35.80
2018-05-27T14:29:21.517Z,35.60
2018-05-27T14:31:49.182Z,35.50
2018-05-27T14:34:16.751Z,35.50
2018-05-27T14:36:44.326Z,34.70
2018-05-27T14:39:12.007Z,34.40
2018-05-27T14:41:39.641Z,34.60
2018-05-27T14:44:08.535Z,35.10
2018-05-27T14:46:37.781Z,35.00
2018-05-27T14:49:05.271Z,34.90
2018-05-27T14:51:32.786Z,35.10
2018-05-27T14:54:00.361Z,34.80
2018-05-27T14:56:28.070Z,34.40
2018-05-27T14:58:55.628Z,34.40
2018-05-27T15:01:23.931Z,33.30
2018-05-27T15:03:51.712Z,33.20
2018-05-27T15:06:19.215Z,33.40
2018-05-27T15:08:46.885Z,33.30
2018-05-27T15:11:14.452Z,33.70
2018-05-27T15:13:42.561Z,34.10
2018-05-27T15:16:10.160Z,35.30
2018-05-27T15:18:38.552Z,36.10
2018-05-27T15:21:06.964Z,36.50
2018-05-27T15:23:34.489Z,36.50
2018-05-27T15:26:02.214Z,36.80
2018-05-27T15:28:29.926Z,37.40
2018-05-27T15:30:57.555Z,37.80
2018-05-27T15:33:25.123Z,38.20
2018-05-27T15:35:52.763Z,38.70
2018-05-27T15:38:20.391Z,38.60
2018-05-27T15:40:47.923Z,38.50
2018-05-27T15:43:16.440Z,39.00
2018-05-27T15:45:44.102Z,39.00
2018-05-27T15:48:12.497Z,39.20
2018-05-27T15:50:40.777Z,39.30
2018-05-27T15:53:09.137Z,39.40
2018-05-27T15:55:36.861Z,39.40
2018-05-27T15:58:04.465Z,39.70
2018-05-27T16:00:32.026Z,40.40
2018-05-27T16:02:59.598Z,40.70
2018-05-27T16:05:27.157Z,40.40
2018-05-27T16:07:55.456Z,39.50
2018-05-27T16:10:23.173Z,39.50
2018-05-27T16:12:50.810Z,39.30
2018-05-27T16:15:18.444Z,38.90
2018-05-27T16:17:46.702Z,38.50
2018-05-27T16:20:14.382Z,38.50
2018-05-27T16:22:41.978Z,38.40
2018-05-27T16:25:10.373Z,37.80
2018-05-27T16:27:38.044Z,37.80
2018-05-27T16:30:06.326Z,38.30
2018-05-27T16:32:33.844Z,38.20
2018-05-27T16:35:01.375Z,38.30
2018-05-27T16:37:29.641Z,38.50
2018-05-27T16:39:57.358Z,38.40
2018-05-27T16:42:24.912Z,39.00
2018-05-27T16:44:52.488Z,38.50
2018-05-27T16:47:19.987Z,38.50
2018-05-27T16:49:48.297Z,39.40
2018-05-27T16:52:15.809Z,38.90
2018-05-27T16:54:44.133Z,39.20
2018-05-27T16:57:11.667Z,39.10
2018-05-27T16:59:39.954Z,39.50
2018-05-27T17:02:08.221Z,39.60
2018-05-27T17:04:35.818Z,39.60
2018-05-27T17:07:04.084Z,39.70
2018-05-27T17:09:31.631Z,39.70
2018-05-27T17:11:59.139Z,39.70
2018-05-27T17:14:27.549Z,40.10
2018-05-27T17:16:55.038Z,39.60
2018-05-27T17:19:22.541Z,39.60
2018-05-27T17:21:50.059Z,39.90
2018-05-27T17:24:17.668Z,39.90
2018-05-27T17:26:45.273Z,40.20
2018-05-27T17:29:12.773Z,40.40
2018-05-27T17:31:40.315Z,40.60
2018-05-27T17:34:07.970Z,40.90
2018-05-27T17:36:35.588Z,41.00
2018-05-27T17:39:03.101Z,41.20
2018-05-27T17:41:30.676Z,41.50
2018-05-27T17:43:58.256Z,41.70
2018-05-27T17:46:25.933Z,42.00
2018-05-27T17:48:53.483Z,42.00
2018-05-27T17:51:20.979Z,41.90
2018-05-27T17:53:48.565Z,42.20
2018-05-27T17:56:16.159Z,42.40
2018-05-27T17:58:44.504Z,42.80
2018-05-27T18:01:12.133Z,42.80
2018-05-27T18:03:39.700Z,43.20
2018-05-27T18:06:07.361Z,43.40
2018-05-27T18:08:35.736Z,43.90
2018-05-27T18:11:04.022Z,44.20
2018-05-27T18:13:31.588Z,44.10
2018-05-27T18:15:59.852Z,44.30
2018-05-27T18:18:27.483Z,44.70
2018-05-27T18:20:54.985Z,44.80
2018-05-27T18:23:22.548Z,46.10
2018-05-27T18:25:50.120Z,46.00
2018-05-27T18:28:17.714Z,45.80
2018-05-27T18:30:45.266Z,45.40
2018-05-27T18:33:12.803Z,45.50
2018-05-27T18:35:41.104Z,45.20
2018-05-27T18:38:09.587Z,45.10
2018-05-27T18:40:37.198Z,45.10
2018-05-27T18:43:04.860Z,45.00
2018-05-27T18:45:32.445Z,44.70
2018-05-27T18:48:00.026Z,44.90
2018-05-27T18:50:27.603Z,44.60
2018-05-27T18:52:55.288Z,44.60
2018-05-27T18:55:22.905Z,44.70
2018-05-27T18:57:50.460Z,44.50
2018-05-27T19:00:19.005Z,44.60
2018-05-27T19:02:47.211Z,44.60
2018-05-27T19:05:16.366Z,44.90
2018-05-27T19:07:44.068Z,44.90
2018-05-27T19:10:11.597Z,45.00
2018-05-27T19:12:40.144Z,45.20
2018-05-27T19:15:07.727Z,45.20
2018-05-27T19:17:35.657Z,45.50
2018-05-27T19:20:03.247Z,45.60
2018-05-27T19:22:30.820Z,45.60
2018-05-27T19:24:58.391Z,45.80
2018-05-27T19:27:26.180Z,45.90
2018-05-27T19:29:53.762Z,46.30
2018-05-27T19:32:21.442Z,46.40
2018-05-27T19:34:48.949Z,46.60
2018-05-27T19:37:17.284Z,47.40
2018-05-27T19:39:44.803Z,47.30
2018-05-27T19:42:13.268Z,47.60
2018-05-27T19:44:40.765Z,48.10
2018-05-27T19:47:08.399Z,47.70
2018-05-27T19:49:35.975Z,48.00
2018-05-27T19:52:03.826Z,48.10
2018-05-27T19:54:31.363Z,48.40
2018-05-27T19:56:59.750Z,48.80
2018-05-27T19:59:27.307Z,48.40
2018-05-27T20:01:54.945Z,48.40
2018-05-27T20:04:22.489Z,48.80
2018-05-27T20:06:50.100Z,48.80
2018-05-27T20:09:17.658Z,49.40
2018-05-27T20:11:45.193Z,49.10
2018-05-27T20:14:13.495Z,49.00
2018-05-27T20:16:41.795Z,49.10
2018-05-27T20:19:09.361Z,49.10
2018-05-27T20:21:36.926Z,49.20
2018-05-27T20:24:04.490Z,49.10
2018-05-27T20:26:32.943Z,49.00
2018-05-27T20:29:00.572Z,48.90
2018-05-27T20:31:29.041Z,48.90
2018-05-27T20:33:57.551Z,48.80
2018-05-27T20:36:25.153Z,48.80
2018-05-27T20:38:52.687Z,49.00
2018-05-27T20:41:21.111Z,49.00
2018-05-27T20:43:48.653Z,48.90
2018-05-27T20:46:16.953Z,49.10
2018-05-27T20:48:44.663Z,49.10
2018-05-27T20:51:12.180Z,49.10
2018-05-27T20:53:40.650Z,49.40
2018-05-27T20:56:09.705Z,49.30
2018-05-27T20:58:37.354Z,49.30
2018-05-27T21:01:05.864Z,49.40
2018-05-27T21:03:33.361Z,49.40
2018-05-27T21:06:00.974Z,49.50
2018-05-27T21:08:28.505Z,49.30
2018-05-27T21:10:56.257Z,49.30
2018-05-27T21:13:23.791Z,49.30
2018-05-27T21:15:52.116Z,49.70
2018-05-27T21:18:19.657Z,49.20
2018-05-27T21:20:47.237Z,49.20
2018-05-27T21:23:14.782Z,49.70
2018-05-27T21:25:42.503Z,49.10
2018-05-27T21:28:10.176Z,49.10
2018-05-27T21:30:37.664Z,49.30
2018-05-27T21:33:05.328Z,49.40
2018-05-27T21:35:32.872Z,49.50
2018-05-27T21:38:01.151Z,49.50
2018-05-27T21:40:28.647Z,49.50
2018-05-27T21:42:56.308Z,49.30
2018-05-27T21:45:24.573Z,49.10
2018-05-27T21:47:53.680Z,49.30
2018-05-27T21:50:21.190Z,49.30
2018-05-27T21:52:48.718Z,49.50
2018-05-27T21:55:16.868Z,49.40
2018-05-27T21:57:44.465Z,49.60
2018-05-27T22:00:11.972Z,49.80
2018-05-27T22:02:40.330Z,49.90
2018-05-27T22:05:07.977Z,49.90
2018-05-27T22:07:35.476Z,49.90
2018-05-27T22:10:03.073Z,50.00
2018-05-27T22:12:30.627Z,50.10
2018-05-27T22:14:58.236Z,50.10
2018-05-27T22:17:26.946Z,50.30
2018-05-27T22:19:54.485Z,50.40
2018-05-27T22:22:22.775Z,50.30
2018-05-27T22:24:51.086Z,51.00
2018-05-27T22:27:18.601Z,50.90
2018-05-27T22:29:46.129Z,51.40
2018-05-27T22:32:13.664Z,51.80
2018-05-27T22:34:41.211Z,52.20
2018-05-27T22:37:08.980Z,52.40
2018-05-27T22:39:36.477Z,52.80
2018-05-27T22:42:04.065Z,52.80
2018-05-27T22:44:32.352Z,53.70
2018-05-27T22:47:00.625Z,53.90
2018-05-27T22:49:28.136Z,53.90
2018-05-27T22:51:55.662Z,54.10
2018-05-27T22:54:23.140Z,54.00
2018-05-27T22:56:50.669Z,54.30
2018-05-27T22:59:18.320Z,54.60
2018-05-27T23:01:45.861Z,54.60
2018-05-27T23:04:13.427Z,54.70
2018-05-27T23:06:41.083Z,55.60
2018-05-27T23:09:08.694Z,55.10
2018-05-27T23:11:36.987Z,55.50
2018-05-27T23:14:04.536Z,55.40
2018-05-27T23:16:32.836Z,56.00
2018-05-27T23:19:01.144Z,55.80
2018-05-27T23:21:28.631Z,55.70
2018-05-27T23:23:56.253Z,56.00
2018-05-27T23:26:23.833Z,56.20
2018-05-27T23:28:52.134Z,56.50
2018-05-27T23:31:20.120Z,56.50
2018-05-27T23:33:48.009Z,56.80
2018-05-27T23:36:15.561Z,56.90
2018-05-27T23:38:43.857Z,56.80
2018-05-27T23:41:12.124Z,56.90
2018-05-27T23:43:39.644Z,56.90
2018-05-27T23:46:07.204Z,57.10
2018-05-27T23:48:34.758Z,57.00
2018-05-27T23:51:02.276Z,57.10
2018-05-27T23:53:29.843Z,57.00
2018-05-27T23:55:57.381Z,57.40
2018-05-27T23:58:24.953Z,57.30
